sensor_id;sensor_type;location;lat;lon;timestamp;P1;durP1;ratioP1;P2;durP2;ratioP2
7471;SDS011;3777;48.722;8.110;2022-09-25T00:00:30;20.73;;;18.53;;
7471;SDS011;3777;48.722;8.110;2022-09-25T00:02:58;19.13;;;17.13;;
7471;SDS011;3777;48.722;8.110;2022-09-25T00:05:25;19.37;;;17.07;;
7471;SDS011;3777;48.722;8.110;2022-09-25T00:07:52;19.23;;;17.23;;
7471;SDS011;3777;48.722;8.110;2022-09-25T00:10:21;31.37;;;18.23;;
7471;SDS011;3777;48.722;8.110;2022-09-25T00:12:48;18.27;;;16.37;;
7471;SDS011;3777;48.722;8.110;2022-09-25T00:15:16;17.13;;;15.33;;
7471;SDS011;3777;48.722;8.110;2022-09-25T00:17:43;18.90;;;15.90;;
7471;SDS011;3777;48.722;8.110;2022-09-25T00:20:11;17.70;;;15.83;;
7471;SDS011;3777;48.722;8.110;2022-09-25T00:22:40;16.47;;;14.60;;
7471;SDS011;3777;48.722;8.110;2022-09-25T00:25:08;17.83;;;16.00;;
7471;SDS011;3777;48.722;8.110;2022-09-25T00:27:37;18.33;;;15.53;;
7471;SDS011;3777;48.722;8.110;2022-09-25T00:30:04;15.70;;;14.10;;
7471;SDS011;3777;48.722;8.110;2022-09-25T00:32:33;17.80;;;15.90;;
7471;SDS011;3777;48.722;8.110;2022-09-25T00:35:00;16.17;;;14.47;;
7471;SDS011;3777;48.722;8.110;2022-09-25T00:37:28;16.13;;;14.23;;
7471;SDS011;3777;48.722;8.110;2022-09-25T00:39:57;17.30;;;15.50;;
7471;SDS011;3777;48.722;8.110;2022-09-25T00:42:24;18.60;;;16.03;;
7471;SDS011;3777;48.722;8.110;2022-09-25T00:44:53;19.67;;;17.17;;
7471;SDS011;3777;48.722;8.110;2022-09-25T00:50:15;18.13;;;16.23;;
7471;SDS011;3777;48.722;8.110;2022-09-25T00:52:49;19.27;;;17.37;;
7471;SDS011;3777;48.722;8.110;2022-09-25T00:55:18;18.57;;;16.57;;
7471;SDS011;3777;48.722;8.110;2022-09-25T00:57:47;17.70;;;15.90;;
7471;SDS011;3777;48.722;8.110;2022-09-25T01:00:18;18.17;;;15.97;;
7471;SDS011;3777;48.722;8.110;2022-09-25T01:02:46;17.73;;;15.77;;
7471;SDS011;3777;48.722;8.110;2022-09-25T01:05:18;18.10;;;16.30;;
7471;SDS011;3777;48.722;8.110;2022-09-25T01:07:47;18.20;;;16.30;;
7471;SDS011;3777;48.722;8.110;2022-09-25T01:10:17;21.40;;;16.13;;
7471;SDS011;3777;48.722;8.110;2022-09-25T01:12:46;19.50;;;17.40;;
7471;SDS011;3777;48.722;8.110;2022-09-25T01:15:15;18.57;;;16.33;;
7471;SDS011;3777;48.722;8.110;2022-09-25T01:17:46;19.13;;;17.13;;
7471;SDS011;3777;48.722;8.110;2022-09-25T01:20:29;18.60;;;16.70;;
7471;SDS011;3777;48.722;8.110;2022-09-25T01:23:24;18.40;;;15.20;;
7471;SDS011;3777;48.722;8.110;2022-09-25T01:26:13;15.87;;;14.27;;
7471;SDS011;3777;48.722;8.110;2022-09-25T01:29:05;15.47;;;13.87;;
7471;SDS011;3777;48.722;8.110;2022-09-25T01:31:39;14.47;;;12.97;;
7471;SDS011;3777;48.722;8.110;2022-09-25T01:34:12;15.73;;;14.03;;
7471;SDS011;3777;48.722;8.110;2022-09-25T01:36:44;14.93;;;13.27;;
7471;SDS011;3777;48.722;8.110;2022-09-25T01:39:18;17.50;;;13.50;;
7471;SDS011;3777;48.722;8.110;2022-09-25T01:41:48;15.03;;;13.43;;
7471;SDS011;3777;48.722;8.110;2022-09-25T01:44:22;14.37;;;12.70;;
7471;SDS011;3777;48.722;8.110;2022-09-25T01:46:54;13.13;;;11.83;;
7471;SDS011;3777;48.722;8.110;2022-09-25T01:49:26;13.37;;;12.07;;
7471;SDS011;3777;48.722;8.110;2022-09-25T01:51:56;13.40;;;12.03;;
7471;SDS011;3777;48.722;8.110;2022-09-25T01:54:26;13.17;;;11.73;;
7471;SDS011;3777;48.722;8.110;2022-09-25T01:56:58;13.17;;;11.73;;
7471;SDS011;3777;48.722;8.110;2022-09-25T01:59:33;13.10;;;11.70;;
7471;SDS011;3777;48.722;8.110;2022-09-25T02:02:04;13.03;;;11.73;;
7471;SDS011;3777;48.722;8.110;2022-09-25T02:04:38;13.53;;;12.13;;
7471;SDS011;3777;48.722;8.110;2022-09-25T02:07:07;13.60;;;12.07;;
7471;SDS011;3777;48.722;8.110;2022-09-25T02:09:39;12.17;;;10.97;;
7471;SDS011;3777;48.722;8.110;2022-09-25T02:12:10;13.87;;;12.43;;
7471;SDS011;3777;48.722;8.110;2022-09-25T02:14:42;14.80;;;13.30;;
7471;SDS011;3777;48.722;8.110;2022-09-25T02:17:13;13.73;;;12.33;;
7471;SDS011;3777;48.722;8.110;2022-09-25T02:20:04;14.03;;;12.73;;
7471;SDS011;3777;48.722;8.110;2022-09-25T02:22:49;13.67;;;12.07;;
7471;SDS011;3777;48.722;8.110;2022-09-25T02:25:19;14.63;;;12.47;;
7471;SDS011;3777;48.722;8.110;2022-09-25T02:27:53;14.07;;;12.53;;
7471;SDS011;3777;48.722;8.110;2022-09-25T02:30:21;14.93;;;13.40;;
7471;SDS011;3777;48.722;8.110;2022-09-25T02:32:48;13.73;;;12.17;;
7471;SDS011;3777;48.722;8.110;2022-09-25T02:35:15;14.63;;;12.93;;
7471;SDS011;3777;48.722;8.110;2022-09-25T02:37:43;14.03;;;12.60;;
7471;SDS011;3777;48.722;8.110;2022-09-25T02:40:10;16.17;;;14.00;;
7471;SDS011;3777;48.722;8.110;2022-09-25T02:42:38;15.07;;;13.53;;
7471;SDS011;3777;48.722;8.110;2022-09-25T02:45:13;16.87;;;14.43;;
7471;SDS011;3777;48.722;8.110;2022-09-25T02:47:51;15.17;;;13.67;;
7471;SDS011;3777;48.722;8.110;2022-09-25T02:50:25;14.07;;;12.53;;
7471;SDS011;3777;48.722;8.110;2022-09-25T02:52:58;15.17;;;11.97;;
7471;SDS011;3777;48.722;8.110;2022-09-25T02:55:32;13.57;;;12.17;;
7471;SDS011;3777;48.722;8.110;2022-09-25T02:58:04;12.83;;;11.53;;
7471;SDS011;3777;48.722;8.110;2022-09-25T03:00:35;13.90;;;12.47;;
7471;SDS011;3777;48.722;8.110;2022-09-25T03:03:06;13.00;;;11.50;;
7471;SDS011;3777;48.722;8.110;2022-09-25T03:05:35;13.80;;;12.40;;
7471;SDS011;3777;48.722;8.110;2022-09-25T03:08:03;13.33;;;11.93;;
7471;SDS011;3777;48.722;8.110;2022-09-25T03:10:48;13.20;;;11.80;;
7471;SDS011;3777;48.722;8.110;2022-09-25T03:13:16;12.93;;;11.63;;
7471;SDS011;3777;48.722;8.110;2022-09-25T03:15:45;13.83;;;12.43;;
7471;SDS011;3777;48.722;8.110;2022-09-25T03:18:17;15.27;;;13.20;;
7471;SDS011;3777;48.722;8.110;2022-09-25T03:20:44;14.60;;;13.10;;
7471;SDS011;3777;48.722;8.110;2022-09-25T03:23:11;14.77;;;13.30;;
7471;SDS011;3777;48.722;8.110;2022-09-25T03:25:38;14.13;;;12.73;;
7471;SDS011;3777;48.722;8.110;2022-09-25T03:28:07;14.63;;;12.73;;
7471;SDS011;3777;48.722;8.110;2022-09-25T03:30:35;16.77;;;13.90;;
7471;SDS011;3777;48.722;8.110;2022-09-25T03:33:05;15.90;;;14.30;;
7471;SDS011;3777;48.722;8.110;2022-09-25T03:35:33;15.93;;;14.07;;
7471;SDS011;3777;48.722;8.110;2022-09-25T03:38:00;17.17;;;14.90;;
7471;SDS011;3777;48.722;8.110;2022-09-25T03:40:27;15.80;;;14.07;;
7471;SDS011;3777;48.722;8.110;2022-09-25T03:42:54;17.17;;;15.17;;
7471;SDS011;3777;48.722;8.110;2022-09-25T03:45:21;15.17;;;13.67;;
7471;SDS011;3777;48.722;8.110;2022-09-25T03:47:48;15.53;;;13.63;;
7471;SDS011;3777;48.722;8.110;2022-09-25T03:50:15;16.03;;;14.33;;
7471;SDS011;3777;48.722;8.110;2022-09-25T03:52:44;15.97;;;13.70;;
7471;SDS011;3777;48.722;8.110;2022-09-25T03:55:11;14.67;;;13.20;;
7471;SDS011;3777;48.722;8.110;2022-09-25T03:57:38;14.93;;;13.43;;
7471;SDS011;3777;48.722;8.110;2022-09-25T04:00:05;16.77;;;14.97;;
7471;SDS011;3777;48.722;8.110;2022-09-25T04:02:33;17.70;;;15.57;;
7471;SDS011;3777;48.722;8.110;2022-09-25T04:05:00;15.63;;;13.67;;
7471;SDS011;3777;48.722;8.110;2022-09-25T04:07:28;16.20;;;14.50;;
7471;SDS011;3777;48.722;8.110;2022-09-25T04:09:56;18.23;;;16.20;;
7471;SDS011;3777;48.722;8.110;2022-09-25T04:12:23;17.50;;;15.63;;
7471;SDS011;3777;48.722;8.110;2022-09-25T04:14:50;18.20;;;15.63;;
7471;SDS011;3777;48.722;8.110;2022-09-25T04:17:19;16.07;;;14.37;;
7471;SDS011;3777;48.722;8.110;2022-09-25T04:19:46;18.90;;;15.50;;
7471;SDS011;3777;48.722;8.110;2022-09-25T04:22:13;16.37;;;14.53;;
7471;SDS011;3777;48.722;8.110;2022-09-25T04:24:39;18.23;;;16.30;;
7471;SDS011;3777;48.722;8.110;2022-09-25T04:27:18;15.93;;;14.23;;
7471;SDS011;3777;48.722;8.110;2022-09-25T04:29:47;16.57;;;14.90;;
7471;SDS011;3777;48.722;8.110;2022-09-25T04:32:15;17.23;;;15.43;;
7471;SDS011;3777;48.722;8.110;2022-09-25T04:34:59;17.20;;;15.40;;
7471;SDS011;3777;48.722;8.110;2022-09-25T04:37:26;18.97;;;16.83;;
7471;SDS011;3777;48.722;8.110;2022-09-25T04:39:53;19.60;;;16.83;;
7471;SDS011;3777;48.722;8.110;2022-09-25T04:42:22;16.97;;;15.17;;
7471;SDS011;3777;48.722;8.110;2022-09-25T04:44:50;17.57;;;14.83;;
7471;SDS011;3777;48.722;8.110;2022-09-25T04:47:18;19.03;;;16.20;;
7471;SDS011;3777;48.722;8.110;2022-09-25T04:49:45;16.10;;;14.50;;
7471;SDS011;3777;48.722;8.110;2022-09-25T04:52:12;17.43;;;15.63;;
7471;SDS011;3777;48.722;8.110;2022-09-25T04:54:40;17.60;;;15.80;;
7471;SDS011;3777;48.722;8.110;2022-09-25T04:57:07;16.47;;;14.77;;
7471;SDS011;3777;48.722;8.110;2022-09-25T04:59:36;17.40;;;15.60;;
7471;SDS011;3777;48.722;8.110;2022-09-25T05:02:03;16.20;;;14.53;;
7471;SDS011;3777;48.722;8.110;2022-09-25T05:04:30;17.47;;;15.57;;
7471;SDS011;3777;48.722;8.110;2022-09-25T05:06:57;18.53;;;16.07;;
7471;SDS011;3777;48.722;8.110;2022-09-25T05:09:24;18.43;;;16.53;;
7471;SDS011;3777;48.722;8.110;2022-09-25T05:11:51;19.50;;;17.40;;
7471;SDS011;3777;48.722;8.110;2022-09-25T05:14:18;18.53;;;16.63;;
7471;SDS011;3777;48.722;8.110;2022-09-25T05:16:46;18.27;;;16.13;;
7471;SDS011;3777;48.722;8.110;2022-09-25T05:19:13;17.70;;;15.90;;
7471;SDS011;3777;48.722;8.110;2022-09-25T05:21:40;17.60;;;15.80;;
7471;SDS011;3777;48.722;8.110;2022-09-25T05:24:08;17.20;;;15.40;;
7471;SDS011;3777;48.722;8.110;2022-09-25T05:26:35;16.70;;;15.00;;
7471;SDS011;3777;48.722;8.110;2022-09-25T05:29:03;16.67;;;14.73;;
7471;SDS011;3777;48.722;8.110;2022-09-25T05:31:31;17.57;;;15.50;;
7471;SDS011;3777;48.722;8.110;2022-09-25T05:33:59;15.80;;;14.27;;
7471;SDS011;3777;48.722;8.110;2022-09-25T05:36:26;17.57;;;15.77;;
7471;SDS011;3777;48.722;8.110;2022-09-25T05:38:53;16.00;;;14.30;;
7471;SDS011;3777;48.722;8.110;2022-09-25T05:41:21;18.93;;;15.73;;
7471;SDS011;3777;48.722;8.110;2022-09-25T05:43:48;18.90;;;16.87;;
7471;SDS011;3777;48.722;8.110;2022-09-25T05:46:15;24.97;;;17.67;;
7471;SDS011;3777;48.722;8.110;2022-09-25T05:48:42;19.20;;;16.03;;
7471;SDS011;3777;48.722;8.110;2022-09-25T05:51:10;22.17;;;18.60;;
7471;SDS011;3777;48.722;8.110;2022-09-25T05:53:37;26.00;;;20.03;;
7471;SDS011;3777;48.722;8.110;2022-09-25T05:56:05;24.33;;;20.27;;
7471;SDS011;3777;48.722;8.110;2022-09-25T05:58:32;25.20;;;21.47;;
7471;SDS011;3777;48.722;8.110;2022-09-25T06:01:00;20.23;;;17.67;;
7471;SDS011;3777;48.722;8.110;2022-09-25T06:03:29;22.30;;;18.90;;
7471;SDS011;3777;48.722;8.110;2022-09-25T06:05:56;19.60;;;17.43;;
7471;SDS011;3777;48.722;8.110;2022-09-25T06:08:25;18.27;;;16.00;;
7471;SDS011;3777;48.722;8.110;2022-09-25T06:10:55;18.77;;;16.77;;
7471;SDS011;3777;48.722;8.110;2022-09-25T06:13:22;16.43;;;14.73;;
7471;SDS011;3777;48.722;8.110;2022-09-25T06:15:50;16.53;;;13.63;;
7471;SDS011;3777;48.722;8.110;2022-09-25T06:18:17;15.80;;;14.07;;
7471;SDS011;3777;48.722;8.110;2022-09-25T06:20:45;14.33;;;12.83;;
7471;SDS011;3777;48.722;8.110;2022-09-25T06:23:13;18.33;;;15.13;;
7471;SDS011;3777;48.722;8.110;2022-09-25T06:25:42;16.97;;;15.13;;
7471;SDS011;3777;48.722;8.110;2022-09-25T06:28:10;17.10;;;15.30;;
7471;SDS011;3777;48.722;8.110;2022-09-25T06:30:37;16.23;;;14.53;;
7471;SDS011;3777;48.722;8.110;2022-09-25T06:33:05;17.77;;;15.13;;
7471;SDS011;3777;48.722;8.110;2022-09-25T06:35:39;15.47;;;12.03;;
7471;SDS011;3777;48.722;8.110;2022-09-25T06:38:07;14.97;;;12.67;;
7471;SDS011;3777;48.722;8.110;2022-09-25T06:40:34;13.93;;;12.53;;
7471;SDS011;3777;48.722;8.110;2022-09-25T06:43:03;12.80;;;11.50;;
7471;SDS011;3777;48.722;8.110;2022-09-25T06:45:31;13.60;;;11.07;;
7471;SDS011;3777;48.722;8.110;2022-09-25T06:48:00;13.33;;;11.23;;
7471;SDS011;3777;48.722;8.110;2022-09-25T06:50:28;24.77;;;12.27;;
7471;SDS011;3777;48.722;8.110;2022-09-25T06:52:59;17.90;;;11.40;;
7471;SDS011;3777;48.722;8.110;2022-09-25T06:55:26;14.63;;;11.83;;
7471;SDS011;3777;48.722;8.110;2022-09-25T06:57:56;13.47;;;11.63;;
7471;SDS011;3777;48.722;8.110;2022-09-25T07:00:25;18.73;;;12.30;;
7471;SDS011;3777;48.722;8.110;2022-09-25T07:02:52;11.63;;;10.43;;
7471;SDS011;3777;48.722;8.110;2022-09-25T07:05:37;13.83;;;11.67;;
7471;SDS011;3777;48.722;8.110;2022-09-25T07:08:04;13.23;;;11.77;;
7471;SDS011;3777;48.722;8.110;2022-09-25T07:10:30;14.93;;;12.10;;
7471;SDS011;3777;48.722;8.110;2022-09-25T07:12:57;13.20;;;11.47;;
7471;SDS011;3777;48.722;8.110;2022-09-25T07:15:27;15.47;;;12.83;;
7471;SDS011;3777;48.722;8.110;2022-09-25T07:17:54;13.03;;;11.73;;
7471;SDS011;3777;48.722;8.110;2022-09-25T07:20:21;13.30;;;11.90;;
7471;SDS011;3777;48.722;8.110;2022-09-25T07:22:48;11.23;;;10.03;;
7471;SDS011;3777;48.722;8.110;2022-09-25T07:25:15;16.17;;;12.00;;
7471;SDS011;3777;48.722;8.110;2022-09-25T07:27:42;13.73;;;11.83;;
7471;SDS011;3777;48.722;8.110;2022-09-25T07:30:09;13.43;;;12.03;;
7471;SDS011;3777;48.722;8.110;2022-09-25T07:32:38;16.63;;;14.03;;
7471;SDS011;3777;48.722;8.110;2022-09-25T07:35:05;14.63;;;13.20;;
7471;SDS011;3777;48.722;8.110;2022-09-25T07:37:33;15.13;;;12.83;;
7471;SDS011;3777;48.722;8.110;2022-09-25T07:40:00;15.40;;;13.50;;
7471;SDS011;3777;48.722;8.110;2022-09-25T07:42:27;16.50;;;13.23;;
7471;SDS011;3777;48.722;8.110;2022-09-25T07:44:55;18.10;;;14.63;;
7471;SDS011;3777;48.722;8.110;2022-09-25T07:47:22;18.97;;;15.50;;
7471;SDS011;3777;48.722;8.110;2022-09-25T07:49:50;16.63;;;14.17;;
7471;SDS011;3777;48.722;8.110;2022-09-25T07:52:17;16.00;;;13.53;;
7471;SDS011;3777;48.722;8.110;2022-09-25T07:54:44;15.70;;;14.00;;
7471;SDS011;3777;48.722;8.110;2022-09-25T07:57:11;19.13;;;14.50;;
7471;SDS011;3777;48.722;8.110;2022-09-25T07:59:38;16.60;;;14.77;;
7471;SDS011;3777;48.722;8.110;2022-09-25T08:02:05;15.77;;;14.20;;
7471;SDS011;3777;48.722;8.110;2022-09-25T08:04:32;18.10;;;15.57;;
7471;SDS011;3777;48.722;8.110;2022-09-25T08:07:00;19.17;;;15.77;;
7471;SDS011;3777;48.722;8.110;2022-09-25T08:09:27;16.00;;;13.97;;
7471;SDS011;3777;48.722;8.110;2022-09-25T08:11:54;15.87;;;14.17;;
7471;SDS011;3777;48.722;8.110;2022-09-25T08:14:21;20.33;;;15.47;;
7471;SDS011;3777;48.722;8.110;2022-09-25T08:16:49;17.00;;;15.20;;
7471;SDS011;3777;48.722;8.110;2022-09-25T08:19:19;17.10;;;15.27;;
7471;SDS011;3777;48.722;8.110;2022-09-25T08:21:47;21.00;;;16.33;;
7471;SDS011;3777;48.722;8.110;2022-09-25T08:24:15;17.97;;;15.93;;
7471;SDS011;3777;48.722;8.110;2022-09-25T08:26:42;17.97;;;16.07;;
7471;SDS011;3777;48.722;8.110;2022-09-25T08:29:09;21.43;;;17.50;;
7471;SDS011;3777;48.722;8.110;2022-09-25T08:31:36;20.80;;;16.73;;
7471;SDS011;3777;48.722;8.110;2022-09-25T08:34:03;22.07;;;18.73;;
7471;SDS011;3777;48.722;8.110;2022-09-25T08:36:32;24.67;;;17.63;;
7471;SDS011;3777;48.722;8.110;2022-09-25T08:38:59;20.77;;;17.93;;
7471;SDS011;3777;48.722;8.110;2022-09-25T08:41:28;22.10;;;18.17;;
7471;SDS011;3777;48.722;8.110;2022-09-25T08:43:58;25.83;;;19.83;;
7471;SDS011;3777;48.722;8.110;2022-09-25T08:46:34;25.70;;;19.83;;
7471;SDS011;3777;48.722;8.110;2022-09-25T08:49:23;26.13;;;19.67;;
7471;SDS011;3777;48.722;8.110;2022-09-25T08:51:58;25.27;;;19.97;;
7471;SDS011;3777;48.722;8.110;2022-09-25T08:54:29;24.93;;;19.33;;
7471;SDS011;3777;48.722;8.110;2022-09-25T08:57:00;24.30;;;19.93;;
7471;SDS011;3777;48.722;8.110;2022-09-25T08:59:36;24.60;;;18.87;;
7471;SDS011;3777;48.722;8.110;2022-09-25T09:02:10;19.10;;;16.03;;
7471;SDS011;3777;48.722;8.110;2022-09-25T09:04:40;26.50;;;20.57;;
7471;SDS011;3777;48.722;8.110;2022-09-25T09:07:13;27.00;;;22.23;;
7471;SDS011;3777;48.722;8.110;2022-09-25T09:09:46;25.53;;;20.07;;
7471;SDS011;3777;48.722;8.110;2022-09-25T09:12:18;23.83;;;19.23;;
7471;SDS011;3777;48.722;8.110;2022-09-25T09:14:51;22.90;;;18.47;;
7471;SDS011;3777;48.722;8.110;2022-09-25T09:17:24;27.07;;;20.90;;
7471;SDS011;3777;48.722;8.110;2022-09-25T09:19:53;26.87;;;21.80;;
7471;SDS011;3777;48.722;8.110;2022-09-25T09:22:25;22.23;;;17.60;;
7471;SDS011;3777;48.722;8.110;2022-09-25T09:24:59;29.60;;;21.83;;
7471;SDS011;3777;48.722;8.110;2022-09-25T09:27:40;27.73;;;20.43;;
7471;SDS011;3777;48.722;8.110;2022-09-25T09:30:19;30.97;;;22.10;;
7471;SDS011;3777;48.722;8.110;2022-09-25T09:35:46;30.63;;;21.97;;
7471;SDS011;3777;48.722;8.110;2022-09-25T09:38:25;29.10;;;21.60;;
7471;SDS011;3777;48.722;8.110;2022-09-25T09:41:00;27.03;;;20.47;;
7471;SDS011;3777;48.722;8.110;2022-09-25T09:43:39;25.47;;;19.47;;
7471;SDS011;3777;48.722;8.110;2022-09-25T09:46:19;28.17;;;22.30;;
7471;SDS011;3777;48.722;8.110;2022-09-25T09:48:56;29.33;;;23.77;;
7471;SDS011;3777;48.722;8.110;2022-09-25T09:51:30;33.70;;;26.00;;
7471;SDS011;3777;48.722;8.110;2022-09-25T09:54:02;44.83;;;34.27;;
7471;SDS011;3777;48.722;8.110;2022-09-25T09:56:34;36.90;;;29.30;;
7471;SDS011;3777;48.722;8.110;2022-09-25T09:59:04;27.57;;;22.13;;
7471;SDS011;3777;48.722;8.110;2022-09-25T10:01:38;25.30;;;21.67;;
7471;SDS011;3777;48.722;8.110;2022-09-25T10:04:08;23.73;;;20.07;;
7471;SDS011;3777;48.722;8.110;2022-09-25T10:06:38;25.50;;;20.97;;
7471;SDS011;3777;48.722;8.110;2022-09-25T10:09:09;21.53;;;18.53;;
7471;SDS011;3777;48.722;8.110;2022-09-25T10:11:39;22.50;;;19.93;;
7471;SDS011;3777;48.722;8.110;2022-09-25T10:14:10;25.70;;;22.27;;
7471;SDS011;3777;48.722;8.110;2022-09-25T10:16:45;26.43;;;21.80;;
7471;SDS011;3777;48.722;8.110;2022-09-25T10:19:14;25.57;;;19.57;;
7471;SDS011;3777;48.722;8.110;2022-09-25T10:21:44;31.03;;;23.70;;
7471;SDS011;3777;48.722;8.110;2022-09-25T10:30:11;28.63;;;22.70;;
7471;SDS011;3777;48.722;8.110;2022-09-25T10:32:43;30.27;;;22.40;;
7471;SDS011;3777;48.722;8.110;2022-09-25T10:35:17;27.53;;;22.63;;
7471;SDS011;3777;48.722;8.110;2022-09-25T10:37:46;24.80;;;19.63;;
7471;SDS011;3777;48.722;8.110;2022-09-25T10:40:26;23.67;;;19.23;;
7471;SDS011;3777;48.722;8.110;2022-09-25T10:43:13;22.93;;;18.43;;
7471;SDS011;3777;48.722;8.110;2022-09-25T10:45:43;20.90;;;18.07;;
7471;SDS011;3777;48.722;8.110;2022-09-25T10:48:26;23.63;;;19.87;;
7471;SDS011;3777;48.722;8.110;2022-09-25T10:51:13;26.57;;;21.37;;
7471;SDS011;3777;48.722;8.110;2022-09-25T10:53:42;24.77;;;20.50;;
7471;SDS011;3777;48.722;8.110;2022-09-25T10:56:10;23.70;;;19.60;;
7471;SDS011;3777;48.722;8.110;2022-09-25T10:58:42;23.10;;;20.00;;
7471;SDS011;3777;48.722;8.110;2022-09-25T11:01:14;23.50;;;18.37;;
7471;SDS011;3777;48.722;8.110;2022-09-25T11:03:45;22.83;;;18.00;;
7471;SDS011;3777;48.722;8.110;2022-09-25T11:06:16;24.63;;;18.63;;
7471;SDS011;3777;48.722;8.110;2022-09-25T11:08:49;24.50;;;19.50;;
7471;SDS011;3777;48.722;8.110;2022-09-25T11:11:23;25.40;;;20.37;;
7471;SDS011;3777;48.722;8.110;2022-09-25T11:13:51;26.00;;;20.57;;
7471;SDS011;3777;48.722;8.110;2022-09-25T11:16:23;20.23;;;16.63;;
7471;SDS011;3777;48.722;8.110;2022-09-25T11:19:11;22.50;;;18.73;;
7471;SDS011;3777;48.722;8.110;2022-09-25T11:21:40;19.17;;;16.30;;
7471;SDS011;3777;48.722;8.110;2022-09-25T11:24:15;21.33;;;17.73;;
7471;SDS011;3777;48.722;8.110;2022-09-25T11:26:47;18.83;;;16.57;;
7471;SDS011;3777;48.722;8.110;2022-09-25T11:29:23;18.73;;;16.73;;
7471;SDS011;3777;48.722;8.110;2022-09-25T11:31:59;20.93;;;16.17;;
7471;SDS011;3777;48.722;8.110;2022-09-25T11:34:35;20.00;;;16.70;;
7471;SDS011;3777;48.722;8.110;2022-09-25T11:37:17;17.73;;;15.57;;
7471;SDS011;3777;48.722;8.110;2022-09-25T11:39:48;20.10;;;16.00;;
7471;SDS011;3777;48.722;8.110;2022-09-25T11:42:40;18.77;;;15.13;;
7471;SDS011;3777;48.722;8.110;2022-09-25T11:45:13;20.17;;;16.80;;
7471;SDS011;3777;48.722;8.110;2022-09-25T11:47:47;21.27;;;17.03;;
7471;SDS011;3777;48.722;8.110;2022-09-25T11:50:20;24.57;;;18.73;;
7471;SDS011;3777;48.722;8.110;2022-09-25T11:52:55;25.03;;;19.10;;
7471;SDS011;3777;48.722;8.110;2022-09-25T11:55:34;23.57;;;17.20;;
7471;SDS011;3777;48.722;8.110;2022-09-25T11:58:10;21.07;;;17.50;;
7471;SDS011;3777;48.722;8.110;2022-09-25T12:00:47;22.77;;;18.47;;
7471;SDS011;3777;48.722;8.110;2022-09-25T12:03:26;21.03;;;17.50;;
7471;SDS011;3777;48.722;8.110;2022-09-25T12:06:12;20.00;;;16.60;;
7471;SDS011;3777;48.722;8.110;2022-09-25T12:09:17;19.17;;;16.07;;
7471;SDS011;3777;48.722;8.110;2022-09-25T12:11:55;20.77;;;16.57;;
7471;SDS011;3777;48.722;8.110;2022-09-25T12:14:29;17.37;;;14.93;;
7471;SDS011;3777;48.722;8.110;2022-09-25T12:17:11;18.97;;;14.27;;
7471;SDS011;3777;48.722;8.110;2022-09-25T12:19:46;17.43;;;14.40;;
7471;SDS011;3777;48.722;8.110;2022-09-25T12:22:20;17.77;;;14.80;;
7471;SDS011;3777;48.722;8.110;2022-09-25T12:24:56;15.93;;;14.23;;
7471;SDS011;3777;48.722;8.110;2022-09-25T12:27:34;17.63;;;14.93;;
7471;SDS011;3777;48.722;8.110;2022-09-25T12:30:13;18.17;;;15.30;;
7471;SDS011;3777;48.722;8.110;2022-09-25T12:35:35;17.87;;;14.77;;
7471;SDS011;3777;48.722;8.110;2022-09-25T12:38:08;18.83;;;14.90;;
7471;SDS011;3777;48.722;8.110;2022-09-25T12:40:45;17.23;;;14.13;;
7471;SDS011;3777;48.722;8.110;2022-09-25T12:43:17;18.87;;;15.37;;
7471;SDS011;3777;48.722;8.110;2022-09-25T12:45:50;16.27;;;14.03;;
7471;SDS011;3777;48.722;8.110;2022-09-25T12:48:22;16.93;;;14.50;;
7471;SDS011;3777;48.722;8.110;2022-09-25T12:50:56;15.23;;;12.90;;
7471;SDS011;3777;48.722;8.110;2022-09-25T12:53:28;17.77;;;14.87;;
7471;SDS011;3777;48.722;8.110;2022-09-25T12:55:59;17.43;;;14.97;;
7471;SDS011;3777;48.722;8.110;2022-09-25T12:58:36;18.30;;;14.77;;
7471;SDS011;3777;48.722;8.110;2022-09-25T13:01:10;18.23;;;14.90;;
7471;SDS011;3777;48.722;8.110;2022-09-25T13:03:44;17.70;;;15.23;;
7471;SDS011;3777;48.722;8.110;2022-09-25T13:06:16;18.60;;;15.13;;
7471;SDS011;3777;48.722;8.110;2022-09-25T13:08:51;18.07;;;14.67;;
7471;SDS011;3777;48.722;8.110;2022-09-25T13:11:28;19.53;;;15.87;;
7471;SDS011;3777;48.722;8.110;2022-09-25T13:14:02;19.53;;;15.83;;
7471;SDS011;3777;48.722;8.110;2022-09-25T13:16:34;20.47;;;16.20;;
7471;SDS011;3777;48.722;8.110;2022-09-25T13:19:08;21.53;;;16.10;;
7471;SDS011;3777;48.722;8.110;2022-09-25T13:21:38;18.13;;;15.73;;
7471;SDS011;3777;48.722;8.110;2022-09-25T13:24:10;18.37;;;14.73;;
7471;SDS011;3777;48.722;8.110;2022-09-25T13:26:43;15.80;;;13.63;;
7471;SDS011;3777;48.722;8.110;2022-09-25T13:29:18;16.83;;;12.73;;
7471;SDS011;3777;48.722;8.110;2022-09-25T13:31:48;17.33;;;13.57;;
7471;SDS011;3777;48.722;8.110;2022-09-25T13:34:17;15.63;;;13.00;;
7471;SDS011;3777;48.722;8.110;2022-09-25T13:36:50;17.27;;;13.10;;
7471;SDS011;3777;48.722;8.110;2022-09-25T13:39:20;10.97;;;8.60;;
7471;SDS011;3777;48.722;8.110;2022-09-25T13:42:12;8.20;;;4.97;;
7471;SDS011;3777;48.722;8.110;2022-09-25T13:44:48;6.50;;;4.00;;
7471;SDS011;3777;48.722;8.110;2022-09-25T13:47:32;9.90;;;5.17;;
7471;SDS011;3777;48.722;8.110;2022-09-25T13:50:24;9.37;;;5.17;;
7471;SDS011;3777;48.722;8.110;2022-09-25T13:56:12;12.17;;;6.03;;
7471;SDS011;3777;48.722;8.110;2022-09-25T13:59:00;10.60;;;7.00;;
7471;SDS011;3777;48.722;8.110;2022-09-25T14:01:33;7.87;;;6.40;;
7471;SDS011;3777;48.722;8.110;2022-09-25T14:04:06;11.93;;;10.67;;
7471;SDS011;3777;48.722;8.110;2022-09-25T14:06:35;10.40;;;7.40;;
7471;SDS011;3777;48.722;8.110;2022-09-25T14:09:07;11.20;;;7.30;;
7471;SDS011;3777;48.722;8.110;2022-09-25T14:11:36;8.00;;;6.73;;
7471;SDS011;3777;48.722;8.110;2022-09-25T14:14:07;13.50;;;10.03;;
7471;SDS011;3777;48.722;8.110;2022-09-25T14:16:44;9.73;;;8.23;;
7471;SDS011;3777;48.722;8.110;2022-09-25T14:19:15;9.40;;;7.73;;
7471;SDS011;3777;48.722;8.110;2022-09-25T14:21:44;9.70;;;6.57;;
7471;SDS011;3777;48.722;8.110;2022-09-25T14:24:18;8.67;;;7.33;;
7471;SDS011;3777;48.722;8.110;2022-09-25T14:26:47;11.77;;;7.87;;
7471;SDS011;3777;48.722;8.110;2022-09-25T14:29:17;9.63;;;8.27;;
7471;SDS011;3777;48.722;8.110;2022-09-25T14:31:48;8.80;;;6.73;;
7471;SDS011;3777;48.722;8.110;2022-09-25T14:37:17;7.80;;;6.77;;
7471;SDS011;3777;48.722;8.110;2022-09-25T14:39:56;8.43;;;6.70;;
7471;SDS011;3777;48.722;8.110;2022-09-25T14:42:38;7.57;;;5.93;;
7471;SDS011;3777;48.722;8.110;2022-09-25T14:45:28;7.10;;;6.37;;
7471;SDS011;3777;48.722;8.110;2022-09-25T14:48:13;6.73;;;5.97;;
7471;SDS011;3777;48.722;8.110;2022-09-25T14:50:43;7.07;;;6.23;;
7471;SDS011;3777;48.722;8.110;2022-09-25T14:53:22;6.47;;;5.87;;
7471;SDS011;3777;48.722;8.110;2022-09-25T14:55:53;7.00;;;6.30;;
7471;SDS011;3777;48.722;8.110;2022-09-25T14:58:23;7.07;;;6.17;;
7471;SDS011;3777;48.722;8.110;2022-09-25T15:00:54;8.10;;;7.30;;
7471;SDS011;3777;48.722;8.110;2022-09-25T15:03:25;8.47;;;7.63;;
7471;SDS011;3777;48.722;8.110;2022-09-25T15:05:57;10.57;;;8.47;;
7471;SDS011;3777;48.722;8.110;2022-09-25T15:08:30;10.07;;;9.07;;
7471;SDS011;3777;48.722;8.110;2022-09-25T15:11:07;9.97;;;8.93;;
7471;SDS011;3777;48.722;8.110;2022-09-25T15:13:36;10.37;;;8.83;;
7471;SDS011;3777;48.722;8.110;2022-09-25T15:16:04;10.50;;;9.40;;
7471;SDS011;3777;48.722;8.110;2022-09-25T15:18:52;10.63;;;8.37;;
7471;SDS011;3777;48.722;8.110;2022-09-25T15:21:24;11.87;;;9.23;;
7471;SDS011;3777;48.722;8.110;2022-09-25T15:23:55;8.73;;;7.73;;
7471;SDS011;3777;48.722;8.110;2022-09-25T15:26:28;8.87;;;7.97;;
7471;SDS011;3777;48.722;8.110;2022-09-25T15:28:56;8.60;;;7.70;;
7471;SDS011;3777;48.722;8.110;2022-09-25T15:31:24;8.97;;;7.73;;
7471;SDS011;3777;48.722;8.110;2022-09-25T15:34:01;12.37;;;9.57;;
7471;SDS011;3777;48.722;8.110;2022-09-25T15:36:29;11.47;;;9.87;;